Time;durP1;ratioP1;P1;durP2;ratioP2;P2;SDS_P1;SDS_P2;PMS_P1;PMS_P2;Temp;Humidity;BMP_temperature;BMP_pressure;BME280_temperature;BME280_humidity;BME280_pressure;Samples;Min_cycle;Max_cycle;Signal;HPM_P1;HPM_P2
2022/07/16 00:01:57;;;;;;;6.65;3.03;;;;;;;;;;5035390;28;20061;-71
2022/07/16 00:04:25;;;;;;;5.25;3.10;;;;;;;;;;5035458;28;20491;-72
2022/07/16 00:06:52;;;;;;;6.45;3.30;;;;;;;;;;5035491;28;20076;-71
2022/07/16 00:09:20;;;;;;;7.10;3.10;;;;;;;;;;5035366;28;20042;-72
2022/07/16 00:11:47;;;;;;;4.32;3.10;;;;;;;;;;5035673;28;20042;-72
2022/07/16 00:14:15;;;;;;;4.63;2.80;;;;;;;;;;5035339;28;20037;-72
2022/07/16 00:16:42;;;;;;;5.45;3.17;;;;;;;;;;5035193;28;20077;-72
2022/07/16 00:19:16;;;;;;;7.80;3.45;;;;;;;;;;5035134;28;20041;-71
2022/07/16 00:21:44;;;;;;;6.77;3.00;;;;;;;;;;5035038;28;20041;-71
2022/07/16 00:24:12;;;;;;;6.93;3.15;;;;;;;;;;5034839;28;20299;-71
2022/07/16 00:26:40;;;;;;;6.68;3.10;;;;;;;;;;5034263;28;20420;-71
2022/07/16 00:29:07;;;;;;;6.32;3.05;;;;;;;;;;5034998;28;20045;-71
2022/07/16 00:31:35;;;;;;;6.43;2.90;;;;;;;;;;5034870;28;20148;-71
2022/07/16 00:34:06;;;;;;;5.75;3.17;;;;;;;;;;5034926;28;20049;-71
2022/07/16 00:36:35;;;;;;;5.35;3.28;;;;;;;;;;5034601;28;20069;-72
2022/07/16 00:39:03;;;;;;;4.75;3.15;;;;;;;;;;5035127;28;20048;-72
2022/07/16 00:41:30;;;;;;;5.82;3.78;;;;;;;;;;5034865;28;20047;-72
2022/07/16 00:44:00;;;;;;;6.47;3.60;;;;;;;;;;5034690;28;20068;-71
2022/07/16 00:46:28;;;;;;;6.90;3.90;;;;;;;;;;5034438;28;20423;-71
2022/07/16 00:48:58;;;;;;;7.35;3.90;;;;;;;;;;5034541;28;20491;-71
2022/07/16 00:51:26;;;;;;;7.57;4.10;;;;;;;;;;5034704;28;20037;-71
2022/07/16 00:53:54;;;;;;;6.20;3.88;;;;;;;;;;5034149;28;20045;-72
2022/07/16 00:56:21;;;;;;;9.05;3.80;;;;;;;;;;5034202;28;20057;-71
2022/07/16 00:58:49;;;;;;;6.60;3.50;;;;;;;;;;5034219;28;20060;-71
2022/07/16 01:01:17;;;;;;;6.78;3.15;;;;;;;;;;5034345;28;20040;-71
2022/07/16 01:03:45;;;;;;;7.38;3.47;;;;;;;;;;5034247;28;20045;-72
2022/07/16 01:06:13;;;;;;;8.80;3.40;;;;;;;;;;5034318;28;20044;-72
2022/07/16 01:08:42;;;;;;;8.77;3.10;;;;;;;;;;5034177;28;20046;-72
2022/07/16 01:11:11;;;;;;;4.13;2.53;;;;;;;;;;5034203;28;20487;-72
2022/07/16 01:13:40;;;;;;;6.30;2.97;;;;;;;;;;5034462;28;20046;-72
2022/07/16 01:16:08;;;;;;;4.50;2.88;;;;;;;;;;5034091;28;20159;-72
2022/07/16 01:18:36;;;;;;;6.30;2.70;;;;;;;;;;5034171;28;20041;-71
2022/07/16 01:21:04;;;;;;;5.05;2.85;;;;;;;;;;5034321;28;20045;-72
2022/07/16 01:23:31;;;;;;;8.27;2.88;;;;;;;;;;5034029;28;20040;-72
2022/07/16 01:25:59;;;;;;;5.00;2.83;;;;;;;;;;5033879;28;20049;-72
2022/07/16 01:28:26;;;;;;;5.72;2.55;;;;;;;;;;5033881;28;20037;-72
2022/07/16 01:30:54;;;;;;;4.85;2.80;;;;;;;;;;5033913;28;20116;-71
2022/07/16 01:33:26;;;;;;;4.20;3.15;;;;;;;;;;5033679;28;20041;-71
2022/07/16 01:35:55;;;;;;;4.88;2.97;;;;;;;;;;5032682;28;20045;-72
2022/07/16 01:38:23;;;;;;;5.43;2.90;;;;;;;;;;5033763;28;20041;-71
2022/07/16 01:40:50;;;;;;;7.90;3.33;;;;;;;;;;5032409;28;20084;-72
2022/07/16 01:43:23;;;;;;;4.97;3.25;;;;;;;;;;5033826;28;20399;-72
2022/07/16 01:45:51;;;;;;;5.43;3.35;;;;;;;;;;5033369;28;20053;-72
2022/07/16 01:48:19;;;;;;;4.43;2.90;;;;;;;;;;5033845;28;20368;-72
2022/07/16 01:50:47;;;;;;;5.43;2.92;;;;;;;;;;5033856;28;20081;-72
2022/07/16 01:53:14;;;;;;;5.28;2.83;;;;;;;;;;5033547;28;20037;-72
2022/07/16 01:55:43;;;;;;;10.50;3.67;;;;;;;;;;5033469;28;20052;-71
2022/07/16 01:58:11;;;;;;;6.78;2.85;;;;;;;;;;5033195;28;20033;-72
2022/07/16 02:00:39;;;;;;;8.95;3.08;;;;;;;;;;5033288;28;20060;-72
2022/07/16 02:03:06;;;;;;;7.28;3.20;;;;;;;;;;5033126;28;20041;-72
2022/07/16 02:05:35;;;;;;;4.60;2.70;;;;;;;;;;5033168;28;20485;-72
2022/07/16 02:08:03;;;;;;;7.32;3.17;;;;;;;;;;5032327;28;20056;-72
2022/07/16 02:10:30;;;;;;;10.55;3.20;;;;;;;;;;5033198;28;20041;-72
2022/07/16 02:12:58;;;;;;;6.10;3.30;;;;;;;;;;5033036;28;20041;-72
2022/07/16 02:15:26;;;;;;;9.18;3.03;;;;;;;;;;5033324;28;20069;-71
2022/07/16 02:17:54;;;;;;;6.10;3.13;;;;;;;;;;5033008;28;20044;-72
2022/07/16 02:20:21;;;;;;;5.05;2.88;;;;;;;;;;5032828;28;20037;-72
2022/07/16 02:22:49;;;;;;;4.93;2.80;;;;;;;;;;5033017;28;20045;-71
2022/07/16 02:25:16;;;;;;;5.82;3.08;;;;;;;;;;5032759;28;20042;-72
2022/07/16 02:30:30;;;;;;;8.32;2.97;;;;;;;;;;5032815;28;20046;-72
2022/07/16 02:32:57;;;;;;;5.88;3.00;;;;;;;;;;5032674;28;20499;-72
2022/07/16 02:35:25;;;;;;;6.53;3.00;;;;;;;;;;5032805;28;20045;-72
2022/07/16 02:37:53;;;;;;;5.85;2.80;;;;;;;;;;5032621;28;20518;-72
2022/07/16 02:40:20;;;;;;;6.68;2.85;;;;;;;;;;5032732;28;20045;-72
2022/07/16 02:42:48;;;;;;;5.05;3.05;;;;;;;;;;5032426;28;20037;-72
2022/07/16 02:45:15;;;;;;;8.15;2.70;;;;;;;;;;5031186;28;20053;-72
2022/07/16 02:47:43;;;;;;;7.03;2.95;;;;;;;;;;5032534;28;20033;-72
2022/07/16 02:50:10;;;;;;;6.95;3.30;;;;;;;;;;5032541;28;20044;-72
2022/07/16 02:52:38;;;;;;;5.18;2.70;;;;;;;;;;5032609;28;20064;-72
2022/07/16 02:55:06;;;;;;;7.05;3.05;;;;;;;;;;5032458;28;20645;-72
2022/07/16 02:57:33;;;;;;;5.05;2.80;;;;;;;;;;5032413;28;20099;-72
2022/07/16 03:00:01;;;;;;;4.50;3.03;;;;;;;;;;5032459;28;20045;-72
2022/07/16 03:02:28;;;;;;;6.18;2.72;;;;;;;;;;5032380;28;20038;-72
2022/07/16 03:04:56;;;;;;;4.40;2.80;;;;;;;;;;5036161;28;20099;-72
2022/07/16 03:07:23;;;;;;;7.18;2.58;;;;;;;;;;5041401;28;20040;-72
2022/07/16 03:09:51;;;;;;;4.40;3.10;;;;;;;;;;5032270;28;20068;-72
2022/07/16 03:12:18;;;;;;;3.15;2.47;;;;;;;;;;5032345;28;20033;-72
2022/07/16 03:14:46;;;;;;;6.85;2.70;;;;;;;;;;5032374;28;20095;-71
2022/07/16 03:17:13;;;;;;;6.20;2.65;;;;;;;;;;5032223;28;20110;-72
2022/07/16 03:19:41;;;;;;;4.07;2.70;;;;;;;;;;5032540;28;20120;-71
2022/07/16 03:22:09;;;;;;;6.00;2.65;;;;;;;;;;5036279;28;20042;-71
2022/07/16 03:24:36;;;;;;;6.53;2.92;;;;;;;;;;5036111;28;20045;-72
2022/07/16 03:27:04;;;;;;;5.45;2.90;;;;;;;;;;5036232;28;20517;-72
2022/07/16 03:29:32;;;;;;;10.30;2.97;;;;;;;;;;5036197;28;20048;-68
2022/07/16 03:31:59;;;;;;;4.82;2.67;;;;;;;;;;5036163;28;20612;-68
2022/07/16 03:34:27;;;;;;;9.02;3.58;;;;;;;;;;5036341;28;20087;-68
2022/07/16 03:36:54;;;;;;;4.90;2.95;;;;;;;;;;5036028;28;20033;-68
2022/07/16 03:39:21;;;;;;;4.95;3.17;;;;;;;;;;5035960;28;20128;-68
2022/07/16 03:41:49;;;;;;;4.82;3.10;;;;;;;;;;5035916;28;20193;-68
2022/07/16 03:44:16;;;;;;;6.53;3.33;;;;;;;;;;5035893;28;20164;-67
2022/07/16 03:46:44;;;;;;;5.72;3.60;;;;;;;;;;5035911;28;20056;-67
2022/07/16 03:49:11;;;;;;;9.52;4.13;;;;;;;;;;5035773;28;20121;-68
2022/07/16 03:51:39;;;;;;;7.38;3.90;;;;;;;;;;5035815;28;20095;-69
2022/07/16 03:54:07;;;;;;;15.13;8.68;;;;;;;;;;5035540;28;20046;-69
2022/07/16 03:56:34;;;;;;;10.27;5.30;;;;;;;;;;5035741;28;20074;-69
2022/07/16 03:59:02;;;;;;;6.13;4.10;;;;;;;;;;5035646;28;20041;-69
2022/07/16 04:01:30;;;;;;;7.22;4.88;;;;;;;;;;5035521;28;20553;-69
2022/07/16 04:03:57;;;;;;;9.38;4.35;;;;;;;;;;5035589;28;20056;-69
2022/07/16 04:06:25;;;;;;;10.48;4.50;;;;;;;;;;5035400;28;20037;-68
2022/07/16 04:08:52;;;;;;;8.20;4.55;;;;;;;;;;5035413;28;20057;-68
2022/07/16 04:11:20;;;;;;;14.80;4.00;;;;;;;;;;5035396;28;20041;-69
2022/07/16 04:13:48;;;;;;;6.53;4.30;;;;;;;;;;5034469;28;20376;-69
2022/07/16 04:16:15;;;;;;;8.70;4.22;;;;;;;;;;5035400;28;20045;-65
2022/07/16 04:18:43;;;;;;;9.70;4.53;;;;;;;;;;5035196;28;20044;-65
2022/07/16 04:21:10;;;;;;;9.65;5.38;;;;;;;;;;5035254;28;20045;-65
2022/07/16 04:23:38;;;;;;;10.55;4.57;;;;;;;;;;5035536;28;20095;-64
2022/07/16 04:26:05;;;;;;;13.13;4.63;;;;;;;;;;5035083;28;20065;-64
2022/07/16 04:28:33;;;;;;;14.82;9.00;;;;;;;;;;5034905;28;20037;-64
2022/07/16 04:31:00;;;;;;;11.38;6.05;;;;;;;;;;5037154;28;20041;-65
2022/07/16 04:33:28;;;;;;;9.70;5.53;;;;;;;;;;5040315;28;20037;-65
2022/07/16 04:35:56;;;;;;;10.90;7.07;;;;;;;;;;5051092;28;20041;-64
2022/07/16 04:38:23;;;;;;;8.70;7.07;;;;;;;;;;5051009;28;20041;-64
2022/07/16 04:40:50;;;;;;;9.25;6.03;;;;;;;;;;5046718;28;20076;-63
2022/07/16 04:43:18;;;;;;;12.35;6.90;;;;;;;;;;5051806;28;20052;-64
2022/07/16 04:45:45;;;;;;;10.95;5.65;;;;;;;;;;5037787;28;20087;-64
2022/07/16 04:48:13;;;;;;;10.27;4.35;;;;;;;;;;5033535;28;20041;-64
2022/07/16 04:50:41;;;;;;;9.32;4.40;;;;;;;;;;5033501;28;20049;-64
2022/07/16 04:53:09;;;;;;;6.40;3.97;;;;;;;;;;5045760;28;20033;-64
2022/07/16 04:55:37;;;;;;;11.38;5.55;;;;;;;;;;5034223;28;20495;-64
2022/07/16 04:58:05;;;;;;;6.28;4.28;;;;;;;;;;5034100;28;20044;-64
2022/07/16 05:00:32;;;;;;;6.43;4.40;;;;;;;;;;5034114;28;20080;-64
2022/07/16 05:03:00;;;;;;;3.78;3.05;;;;;;;;;;5034180;28;20033;-63
2022/07/16 05:05:29;;;;;;;11.73;3.67;;;;;;;;;;5043821;28;20054;-63
2022/07/16 05:07:57;;;;;;;7.80;3.42;;;;;;;;;;5033858;28;20041;-63
2022/07/16 05:10:25;;;;;;;7.78;3.50;;;;;;;;;;5033876;28;20037;-63
2022/07/16 05:12:53;;;;;;;8.07;4.28;;;;;;;;;;5033908;28;20509;-64
2022/07/16 05:15:21;;;;;;;11.80;6.57;;;;;;;;;;5033929;28;20430;-63
2022/07/16 05:17:49;;;;;;;4.53;3.35;;;;;;;;;;5033871;28;20103;-64
2022/07/16 05:20:16;;;;;;;16.40;13.93;;;;;;;;;;5033763;28;20147;-64
2022/07/16 05:22:44;;;;;;;17.95;12.15;;;;;;;;;;5035319;28;20040;-64
2022/07/16 05:25:12;;;;;;;11.20;5.75;;;;;;;;;;5044186;28;20426;-64
2022/07/16 05:27:39;;;;;;;6.47;2.63;;;;;;;;;;5033609;28;20056;-62
2022/07/16 05:30:09;;;;;;;7.22;2.70;;;;;;;;;;5033465;28;20041;-62
2022/07/16 05:32:43;;;;;;;6.72;5.00;;;;;;;;;;5032418;28;20065;-60
2022/07/16 05:35:11;;;;;;;12.70;9.05;;;;;;;;;;5033711;28;20048;-60
2022/07/16 05:37:39;;;;;;;4.05;3.20;;;;;;;;;;5035652;28;20045;-61
2022/07/16 05:40:06;;;;;;;5.22;2.80;;;;;;;;;;5033322;28;20103;-61
2022/07/16 05:42:34;;;;;;;4.38;3.20;;;;;;;;;;5033048;28;20498;-61
2022/07/16 05:45:02;;;;;;;4.25;2.80;;;;;;;;;;5033288;28;20137;-60
2022/07/16 05:47:32;;;;;;;4.97;2.42;;;;;;;;;;5032048;28;20044;-61
2022/07/16 05:50:00;;;;;;;4.68;3.17;;;;;;;;;;5033569;28;20037;-60
2022/07/16 05:52:27;;;;;;;4.82;2.88;;;;;;;;;;5040271;28;20048;-61
2022/07/16 05:54:55;;;;;;;5.38;2.78;;;;;;;;;;5038401;28;20041;-61
2022/07/16 05:57:22;;;;;;;6.13;3.17;;;;;;;;;;5032911;28;20129;-61
2022/07/16 05:59:50;;;;;;;4.57;2.78;;;;;;;;;;5032970;28;20033;-61
2022/07/16 06:02:17;;;;;;;4.47;2.88;;;;;;;;;;5037103;28;20398;-61
2022/07/16 06:04:45;;;;;;;4.88;2.63;;;;;;;;;;5032610;28;20079;-61
2022/07/16 06:07:12;;;;;;;3.95;2.90;;;;;;;;;;5034930;28;20403;-61
2022/07/16 06:09:40;;;;;;;4.30;2.80;;;;;;;;;;5032725;28;20041;-61
2022/07/16 06:12:07;;;;;;;4.60;2.33;;;;;;;;;;5032654;28;20049;-61
2022/07/16 06:14:35;;;;;;;4.15;2.65;;;;;;;;;;5032842;28;20045;-61
2022/07/16 06:17:02;;;;;;;6.53;3.53;;;;;;;;;;5032487;28;20415;-61
2022/07/16 06:19:30;;;;;;;7.20;4.65;;;;;;;;;;5032600;28;20092;-60
2022/07/16 06:21:57;;;;;;;5.05;3.20;;;;;;;;;;5032680;28;20049;-60
2022/07/16 06:24:25;;;;;;;8.15;3.63;;;;;;;;;;5044242;28;20112;-60
2022/07/16 06:26:52;;;;;;;7.40;3.05;;;;;;;;;;5032441;28;20038;-60
2022/07/16 06:29:20;;;;;;;4.05;2.60;;;;;;;;;;5045330;28;20120;-61
2022/07/16 06:31:47;;;;;;;6.65;3.13;;;;;;;;;;5032439;28;20033;-61
2022/07/16 06:34:15;;;;;;;6.35;2.97;;;;;;;;;;5045000;28;20053;-62
2022/07/16 06:36:43;;;;;;;3.65;2.53;;;;;;;;;;5033382;28;20464;-61
2022/07/16 06:39:11;;;;;;;3.75;2.65;;;;;;;;;;5031135;28;20450;-61
2022/07/16 06:41:39;;;;;;;4.95;2.90;;;;;;;;;;5032324;28;20499;-62
2022/07/16 06:44:09;;;;;;;3.30;2.45;;;;;;;;;;5030972;28;20406;-62
2022/07/16 06:46:37;;;;;;;5.50;2.65;;;;;;;;;;5039358;28;20461;-62
2022/07/16 06:49:05;;;;;;;5.25;2.35;;;;;;;;;;5035471;28;21075;-61
2022/07/16 06:51:32;;;;;;;3.70;2.50;;;;;;;;;;5034595;28;20046;-62
2022/07/16 06:53:59;;;;;;;6.35;3.15;;;;;;;;;;5031560;28;20049;-62
2022/07/16 06:56:27;;;;;;;8.43;3.83;;;;;;;;;;5032229;28;20455;-62
2022/07/16 06:58:54;;;;;;;6.40;2.63;;;;;;;;;;5044476;28;20044;-62
2022/07/16 07:01:23;;;;;;;4.95;2.53;;;;;;;;;;5032459;28;20538;-63
2022/07/16 07:03:50;;;;;;;6.18;3.10;;;;;;;;;;5041529;28;20421;-62
2022/07/16 07:06:18;;;;;;;7.85;2.90;;;;;;;;;;5048056;28;20037;-62
2022/07/16 07:08:46;;;;;;;5.38;2.97;;;;;;;;;;5048812;28;20044;-62
2022/07/16 07:11:20;;;;;;;3.92;2.53;;;;;;;;;;5044762;28;20061;-62
2022/07/16 07:13:48;;;;;;;9.20;5.97;;;;;;;;;;5033260;28;20048;-62
2022/07/16 07:16:16;;;;;;;4.95;3.15;;;;;;;;;;5034258;28;20045;-62
2022/07/16 07:18:43;;;;;;;7.90;3.53;;;;;;;;;;5031130;28;20033;-62
2022/07/16 07:21:11;;;;;;;7.78;3.25;;;;;;;;;;5030957;28;20042;-62
2022/07/16 07:23:39;;;;;;;6.65;2.78;;;;;;;;;;5030804;28;20042;-63
2022/07/16 07:26:06;;;;;;;5.63;2.40;;;;;;;;;;5043386;28;20041;-62
2022/07/16 07:28:34;;;;;;;6.57;2.83;;;;;;;;;;5043787;28;20037;-63
2022/07/16 07:31:01;;;;;;;7.72;2.88;;;;;;;;;;5041207;28;20108;-63
2022/07/16 07:33:29;;;;;;;4.90;2.80;;;;;;;;;;5030719;28;20038;-63
2022/07/16 07:35:56;;;;;;;6.15;2.83;;;;;;;;;;5042914;28;20046;-63
2022/07/16 07:38:24;;;;;;;5.57;2.90;;;;;;;;;;5038393;28;20033;-63
2022/07/16 07:40:51;;;;;;;5.60;2.60;;;;;;;;;;5031833;28;20064;-63
2022/07/16 07:43:19;;;;;;;5.10;2.45;;;;;;;;;;5030980;28;20052;-63
2022/07/16 07:45:46;;;;;;;5.80;2.47;;;;;;;;;;5032204;28;20053;-63
2022/07/16 07:48:14;;;;;;;8.40;3.15;;;;;;;;;;5047744;28;20041;-62
2022/07/16 07:50:42;;;;;;;5.88;2.67;;;;;;;;;;5045636;28;20055;-63
2022/07/16 07:53:10;;;;;;;8.93;3.33;;;;;;;;;;5042052;28;20551;-61
2022/07/16 07:55:38;;;;;;;5.07;4.05;;;;;;;;;;5038281;28;20037;-61
2022/07/16 07:58:06;;;;;;;8.02;2.97;;;;;;;;;;5031807;28;20033;-61
2022/07/16 08:00:33;;;;;;;3.42;2.83;;;;;;;;;;5034315;28;20072;-62
2022/07/16 08:03:07;;;;;;;8.82;4.10;;;;;;;;;;5019034;28;20116;-62
2022/07/16 08:05:36;;;;;;;5.00;3.15;;;;;;;;;;5031505;28;20041;-61
2022/07/16 08:08:03;;;;;;;11.23;4.78;;;;;;;;;;5047944;28;20073;-62
2022/07/16 08:10:31;;;;;;;7.45;2.85;;;;;;;;;;5048535;28;20048;-62
2022/07/16 08:12:58;;;;;;;6.25;2.90;;;;;;;;;;5046313;28;20033;-61
2022/07/16 08:15:26;;;;;;;5.68;3.28;;;;;;;;;;5038751;28;20463;-62
2022/07/16 08:17:53;;;;;;;5.55;2.70;;;;;;;;;;5034936;28;20036;-62
2022/07/16 08:20:21;;;;;;;6.22;2.78;;;;;;;;;;5040213;28;20433;-62
2022/07/16 08:22:49;;;;;;;10.15;3.22;;;;;;;;;;5040092;28;20053;-61
2022/07/16 08:28:03;;;;;;;7.50;2.95;;;;;;;;;;5032875;28;20072;-61
2022/07/16 08:30:30;;;;;;;10.15;3.53;;;;;;;;;;5040068;28;20044;-62
2022/07/16 08:32:58;;;;;;;5.05;3.10;;;;;;;;;;5041482;28;20033;-65
2022/07/16 08:35:26;;;;;;;4.53;2.88;;;;;;;;;;5037066;28;20052;-64
2022/07/16 08:37:53;;;;;;;7.20;3.40;;;;;;;;;;5042825;28;20562;-64
2022/07/16 08:40:22;;;;;;;6.53;3.20;;;;;;;;;;5039497;28;20395;-64
2022/07/16 08:42:50;;;;;;;7.60;3.33;;;;;;;;;;5034806;28;20061;-63
2022/07/16 08:45:19;;;;;;;4.80;2.60;;;;;;;;;;5033058;28;20061;-62
2022/07/16 08:47:46;;;;;;;6.20;2.70;;;;;;;;;;5033940;28;20041;-62
2022/07/16 08:50:14;;;;;;;7.10;2.92;;;;;;;;;;5037642;28;20037;-62
2022/07/16 08:52:43;;;;;;;5.10;2.83;;;;;;;;;;5034842;28;20353;-62
2022/07/16 08:55:11;;;;;;;7.20;2.78;;;;;;;;;;5034638;28;20091;-62
2022/07/16 08:57:39;;;;;;;8.48;3.50;;;;;;;;;;5034281;28;20050;-62
2022/07/16 09:00:08;;;;;;;5.50;3.00;;;;;;;;;;5041955;28;20071;-65
2022/07/16 09:02:36;;;;;;;5.30;3.10;;;;;;;;;;5037522;28;20037;-60
2022/07/16 09:05:04;;;;;;;19.75;4.05;;;;;;;;;;5033949;28;20037;-64
2022/07/16 09:07:31;;;;;;;7.55;2.88;;;;;;;;;;5041406;28;20041;-65
2022/07/16 09:09:59;;;;;;;6.30;3.00;;;;;;;;;;5038461;28;20049;-65
2022/07/16 09:12:42;;;;;;;12.63;3.70;;;;;;;;;;5033442;28;20049;-66
2022/07/16 09:15:28;;;;;;;5.13;3.30;;;;;;;;;;5033431;28;20548;-65
2022/07/16 09:18:11;;;;;;;7.88;3.80;;;;;;;;;;5033019;28;20033;-66
2022/07/16 09:20:39;;;;;;;4.93;3.13;;;;;;;;;;5033625;28;20091;-66
2022/07/16 09:23:22;;;;;;;7.53;2.90;;;;;;;;;;5033326;28;20045;-65
2022/07/16 09:25:51;;;;;;;9.30;3.35;;;;;;;;;;5033195;28;20045;-65
2022/07/16 09:28:19;;;;;;;5.63;3.30;;;;;;;;;;5033124;28;20044;-68
2022/07/16 09:30:46;;;;;;;5.32;2.90;;;;;;;;;;5033355;28;20499;-67
2022/07/16 09:33:19;;;;;;;6.15;3.33;;;;;;;;;;5032881;28;20049;-67
2022/07/16 09:35:48;;;;;;;8.70;3.20;;;;;;;;;;5033281;28;20041;-67
2022/07/16 09:38:15;;;;;;;9.15;5.13;;;;;;;;;;5032848;28;20550;-66
2022/07/16 09:40:45;;;;;;;9.50;3.55;;;;;;;;;;5019439;28;20434;-65
2022/07/16 09:43:13;;;;;;;4.90;3.42;;;;;;;;;;5031487;28;20429;-65
2022/07/16 09:45:41;;;;;;;9.13;4.65;;;;;;;;;;5043926;28;20041;-64
2022/07/16 09:48:22;;;;;;;7.60;3.80;;;;;;;;;;5039403;28;20034;-64
2022/07/16 09:50:50;;;;;;;5.90;3.33;;;;;;;;;;5027510;28;20124;-64
2022/07/16 09:53:19;;;;;;;4.05;3.00;;;;;;;;;;5034892;28;20395;-64
2022/07/16 09:56:01;;;;;;;6.38;3.08;;;;;;;;;;5048396;28;20444;-66
2022/07/16 09:58:29;;;;;;;4.47;3.03;;;;;;;;;;5031854;28;20064;-64
2022/07/16 10:00:57;;;;;;;5.40;2.90;;;;;;;;;;5032361;28;20356;-65
2022/07/16 10:03:25;;;;;;;4.38;2.60;;;;;;;;;;5034500;28;20041;-65
2022/07/16 10:05:53;;;;;;;5.10;2.70;;;;;;;;;;5031756;28;20049;-62
2022/07/16 10:08:21;;;;;;;6.57;3.13;;;;;;;;;;5031869;28;20045;-65
2022/07/16 10:10:48;;;;;;;4.82;2.90;;;;;;;;;;5038266;28;20138;-62
2022/07/16 10:13:17;;;;;;;5.13;3.20;;;;;;;;;;5040702;28;20443;-65
2022/07/16 10:15:46;;;;;;;6.05;2.80;;;;;;;;;;5033180;28;20040;-65
2022/07/16 10:18:33;;;;;;;8.40;3.15;;;;;;;;;;5042422;28;20132;-63
2022/07/16 10:21:21;;;;;;;6.28;3.28;;;;;;;;;;5031359;28;20060;-62
2022/07/16 10:23:51;;;;;;;6.50;2.60;;;;;;;;;;5032331;28;20033;-65
2022/07/16 10:26:20;;;;;;;4.13;2.70;;;;;;;;;;5032361;28;20439;-66
2022/07/16 10:28:48;;;;;;;5.38;2.92;;;;;;;;;;5044250;28;20418;-64
2022/07/16 10:31:33;;;;;;;7.63;3.00;;;;;;;;;;5032102;28;20488;-64
2022/07/16 10:34:13;;;;;;;6.20;3.17;;;;;;;;;;5032195;28;20056;-63
2022/07/16 10:36:52;;;;;;;8.68;3.10;;;;;;;;;;5021792;28;20047;-64
2022/07/16 10:39:20;;;;;;;9.23;3.05;;;;;;;;;;5019098;28;20109;-64
2022/07/16 10:41:54;;;;;;;3.63;2.90;;;;;;;;;;5032523;28;20073;-64
2022/07/16 10:44:23;;;;;;;6.25;2.72;;;;;;;;;;5031960;28;20499;-62
2022/07/16 10:46:57;;;;;;;5.25;2.70;;;;;;;;;;5032286;28;20060;-64
2022/07/16 10:49:26;;;;;;;3.95;2.75;;;;;;;;;;5032172;28;20045;-65
2022/07/16 10:51:57;;;;;;;5.30;2.60;;;;;;;;;;5032114;28;20045;-65
2022/07/16 10:54:30;;;;;;;7.70;2.58;;;;;;;;;;5032168;28;20429;-65
2022/07/16 10:56:59;;;;;;;3.97;2.58;;;;;;;;;;5031680;28;20099;-64
2022/07/16 10:59:28;;;;;;;6.22;2.90;;;;;;;;;;5031274;28;20120;-64
2022/07/16 11:01:57;;;;;;;5.40;2.58;;;;;;;;;;5031600;28;20045;-65
2022/07/16 11:04:28;;;;;;;4.30;2.80;;;;;;;;;;5032148;28;20037;-65
2022/07/16 11:06:56;;;;;;;5.38;3.38;;;;;;;;;;5031708;28;20049;-65
2022/07/16 11:09:29;;;;;;;6.05;3.00;;;;;;;;;;5035084;28;20072;-65
2022/07/16 11:12:05;;;;;;;7.63;3.35;;;;;;;;;;5030891;28;20033;-67
2022/07/16 11:14:33;;;;;;;7.75;2.72;;;;;;;;;;5028710;28;20095;-66
2022/07/16 11:17:00;;;;;;;5.40;3.15;;;;;;;;;;5031855;28;20084;-66
2022/07/16 11:19:28;;;;;;;4.60;2.90;;;;;;;;;;5031329;28;20072;-66
2022/07/16 11:21:57;;;;;;;5.65;2.80;;;;;;;;;;5031894;28;20040;-66
2022/07/16 11:24:26;;;;;;;5.55;2.47;;;;;;;;;;5031543;28;20078;-67
2022/07/16 11:26:54;;;;;;;6.32;2.80;;;;;;;;;;5031648;28;20045;-66
2022/07/16 11:29:24;;;;;;;6.63;3.03;;;;;;;;;;5031554;28;20038;-65
2022/07/16 11:31:52;;;;;;;6.07;3.00;;;;;;;;;;5030625;28;20045;-63
2022/07/16 11:34:24;;;;;;;5.35;2.53;;;;;;;;;;5031689;28;20041;-64
2022/07/16 11:36:53;;;;;;;3.35;2.55;;;;;;;;;;5030461;28;20484;-63
2022/07/16 11:39:22;;;;;;;4.25;2.70;;;;;;;;;;5031319;28;20117;-64
2022/07/16 11:41:50;;;;;;;4.78;2.60;;;;;;;;;;5034754;28;20108;-64
2022/07/16 11:44:22;;;;;;;3.97;2.88;;;;;;;;;;5035265;28;20076;-64
2022/07/16 11:46:51;;;;;;;5.63;2.63;;;;;;;;;;5035338;28;20461;-67
2022/07/16 11:49:21;;;;;;;6.57;2.83;;;;;;;;;;5033567;28;20041;-63
2022/07/16 11:51:49;;;;;;;7.95;3.30;;;;;;;;;;5035096;28;20042;-64
2022/07/16 11:54:17;;;;;;;7.45;2.70;;;;;;;;;;5035245;28;20033;-65
2022/07/16 11:56:44;;;;;;;6.97;2.70;;;;;;;;;;5035077;28;20049;-64
2022/07/16 11:59:25;;;;;;;8.32;3.00;;;;;;;;;;5035352;28;20383;-64
2022/07/16 12:01:57;;;;;;;5.00;3.10;;;;;;;;;;5035043;28;20047;-67
2022/07/16 12:04:33;;;;;;;6.13;3.03;;;;;;;;;;5037089;28;20133;-65
2022/07/16 12:07:00;;;;;;;7.93;2.80;;;;;;;;;;5034386;28;20041;-67
2022/07/16 12:09:47;;;;;;;6.38;2.60;;;;;;;;;;5034230;28;20483;-67
2022/07/16 12:12:16;;;;;;;4.38;3.00;;;;;;;;;;5034291;28;20495;-67
2022/07/16 12:14:54;;;;;;;5.68;3.10;;;;;;;;;;5034162;28;20049;-67
2022/07/16 12:17:42;;;;;;;8.40;2.90;;;;;;;;;;5034395;28;20073;-69
2022/07/16 12:20:17;;;;;;;4.45;2.80;;;;;;;;;;5042786;28;20120;-69
2022/07/16 12:22:53;;;;;;;4.82;2.95;;;;;;;;;;5051865;28;20034;-68
2022/07/16 12:25:24;;;;;;;6.72;3.00;;;;;;;;;;5052090;28;20529;-69
2022/07/16 12:27:52;;;;;;;9.43;3.58;;;;;;;;;;5051499;28;20111;-69
2022/07/16 12:30:29;;;;;;;8.75;3.60;;;;;;;;;;5037908;28;20049;-70
2022/07/16 12:32:59;;;;;;;7.50;3.17;;;;;;;;;;5024226;28;20129;-70
2022/07/16 12:35:47;;;;;;;6.00;3.47;;;;;;;;;;5062426;28;20048;-68
2022/07/16 12:38:33;;;;;;;8.43;4.13;;;;;;;;;;5026077;28;20065;-70
2022/07/16 12:41:00;;;;;;;12.55;4.20;;;;;;;;;;5034135;28;20096;-67
2022/07/16 12:43:28;;;;;;;8.52;3.55;;;;;;;;;;5033974;28;20050;-67
2022/07/16 12:45:55;;;;;;;4.78;2.95;;;;;;;;;;5034087;28;20375;-67
2022/07/16 12:48:23;;;;;;;4.60;3.17;;;;;;;;;;5032488;28;20517;-66
2022/07/16 12:50:50;;;;;;;6.22;3.35;;;;;;;;;;5032891;28;20387;-66
2022/07/16 12:53:18;;;;;;;6.20;3.40;;;;;;;;;;5044460;28;20044;-68
2022/07/16 12:58:49;;;;;;;8.10;3.53;;;;;;;;;;5047183;28;20060;-69
2022/07/16 13:01:21;;;;;;;8.45;3.38;;;;;;;;;;5048483;28;20045;-66
2022/07/16 13:03:49;;;;;;;6.43;3.58;;;;;;;;;;5036731;28;20033;-66
2022/07/16 13:06:17;;;;;;;7.70;3.30;;;;;;;;;;5032474;28;20037;-67
2022/07/16 13:08:45;;;;;;;12.38;9.43;;;;;;;;;;5033625;28;20410;-66
2022/07/16 13:11:13;;;;;;;5.72;3.35;;;;;;;;;;5033609;28;20065;-67
2022/07/16 13:13:41;;;;;;;9.88;3.38;;;;;;;;;;5033487;28;20045;-67
2022/07/16 13:16:09;;;;;;;5.40;3.08;;;;;;;;;;5036073;28;20072;-66
2022/07/16 13:18:38;;;;;;;4.63;2.92;;;;;;;;;;5033617;28;20044;-72
2022/07/16 13:21:06;;;;;;;11.00;3.40;;;;;;;;;;5033784;28;20041;-69
2022/07/16 13:23:35;;;;;;;7.15;3.35;;;;;;;;;;5045160;28;20057;-70
2022/07/16 13:26:03;;;;;;;9.50;3.97;;;;;;;;;;5033689;28;20037;-70
2022/07/16 13:28:31;;;;;;;5.00;3.42;;;;;;;;;;5033118;28;20042;-71
2022/07/16 13:30:59;;;;;;;8.88;4.38;;;;;;;;;;5033436;28;20044;-70
2022/07/16 13:33:26;;;;;;;7.80;3.92;;;;;;;;;;5032158;28;20407;-70
2022/07/16 13:35:54;;;;;;;14.70;8.57;;;;;;;;;;5033469;28;20026;-70
2022/07/16 13:38:22;;;;;;;8.07;5.10;;;;;;;;;;5033341;28;20369;-70
2022/07/16 13:40:50;;;;;;;11.73;5.68;;;;;;;;;;5033396;28;20038;-69
2022/07/16 13:43:19;;;;;;;9.88;6.00;;;;;;;;;;5031940;28;20120;-69
2022/07/16 13:45:47;;;;;;;9.40;5.47;;;;;;;;;;5032309;28;20142;-68
2022/07/16 13:48:18;;;;;;;13.63;5.18;;;;;;;;;;5031847;28;20077;-67
2022/07/16 13:50:46;;;;;;;10.35;4.20;;;;;;;;;;5042518;28;20510;-68
2022/07/16 13:53:14;;;;;;;7.05;4.15;;;;;;;;;;5035496;28;20033;-68
2022/07/16 13:55:42;;;;;;;4.03;3.40;;;;;;;;;;5033047;28;20050;-69
2022/07/16 13:58:13;;;;;;;7.53;4.00;;;;;;;;;;5033147;28;20116;-67
2022/07/16 14:00:41;;;;;;;5.65;3.40;;;;;;;;;;5032989;28;20080;-68
2022/07/16 14:03:08;;;;;;;8.88;3.55;;;;;;;;;;5032490;28;20042;-69
2022/07/16 14:05:36;;;;;;;5.40;3.22;;;;;;;;;;5031006;28;20099;-68
2022/07/16 14:08:04;;;;;;;8.35;4.28;;;;;;;;;;5032503;28;20041;-68
2022/07/16 14:10:32;;;;;;;7.88;4.10;;;;;;;;;;5033215;28;20128;-68
2022/07/16 14:13:00;;;;;;;5.00;3.70;;;;;;;;;;5031229;28;20175;-68
2022/07/16 14:15:31;;;;;;;5.88;3.70;;;;;;;;;;5032737;28;20049;-68
2022/07/16 14:17:59;;;;;;;5.25;3.53;;;;;;;;;;5042624;28;20033;-68
2022/07/16 14:20:28;;;;;;;4.45;3.38;;;;;;;;;;5048831;28;20537;-67
2022/07/16 14:22:55;;;;;;;9.00;3.58;;;;;;;;;;5038678;28;20042;-64
2022/07/16 14:25:23;;;;;;;5.95;3.30;;;;;;;;;;5032536;28;20124;-63
2022/07/16 14:27:52;;;;;;;7.38;4.10;;;;;;;;;;5032085;28;20029;-64
2022/07/16 14:30:21;;;;;;;6.47;3.40;;;;;;;;;;5032160;28;20121;-63
2022/07/16 14:32:48;;;;;;;6.07;4.05;;;;;;;;;;5032196;28;20431;-64
2022/07/16 14:35:17;;;;;;;7.07;5.85;;;;;;;;;;5032024;28;20037;-63
2022/07/16 14:37:45;;;;;;;18.63;15.02;;;;;;;;;;5032318;28;20046;-63
2022/07/16 14:40:17;;;;;;;6.20;5.40;;;;;;;;;;5046169;28;20107;-63
2022/07/16 14:42:46;;;;;;;13.88;9.05;;;;;;;;;;5044883;28;20033;-63
2022/07/16 14:45:15;;;;;;;16.35;11.43;;;;;;;;;;5031887;28;20045;-63
2022/07/16 14:47:43;;;;;;;9.98;8.32;;;;;;;;;;5031672;28;20476;-63
2022/07/16 14:50:11;;;;;;;9.45;7.55;;;;;;;;;;5031903;28;20049;-63
2022/07/16 14:52:39;;;;;;;7.45;5.75;;;;;;;;;;5031993;28;20044;-63
2022/07/16 14:55:07;;;;;;;5.45;4.50;;;;;;;;;;5034540;28;20056;-64
2022/07/16 14:57:35;;;;;;;10.10;4.10;;;;;;;;;;5032103;28;20042;-64
2022/07/16 15:00:04;;;;;;;4.80;4.35;;;;;;;;;;5036822;28;20376;-63